sensor_id;sensor_type;location;lat;lon;timestamp;P1;durP1;ratioP1;P2;durP2;ratioP2
34767;SDS011;21755;43.608;1.236;2024-01-10T00:01:42;35.88;;;17.45;;
34767;SDS011;21755;43.608;1.236;2024-01-10T00:04:08;41.35;;;18.42;;
34767;SDS011;21755;43.608;1.236;2024-01-10T00:06:34;43.00;;;19.45;;
34767;SDS011;21755;43.608;1.236;2024-01-10T00:09:00;49.10;;;21.15;;
34767;SDS011;21755;43.608;1.236;2024-01-10T00:11:26;46.67;;;22.60;;
34767;SDS011;21755;43.608;1.236;2024-01-10T00:13:52;53.03;;;22.75;;
34767;SDS011;21755;43.608;1.236;2024-01-10T00:16:17;49.53;;;22.95;;
34767;SDS011;21755;43.608;1.236;2024-01-10T00:18:43;50.72;;;22.20;;
34767;SDS011;21755;43.608;1.236;2024-01-10T00:21:12;48.75;;;21.30;;
34767;SDS011;21755;43.608;1.236;2024-01-10T00:23:38;45.20;;;21.00;;
34767;SDS011;21755;43.608;1.236;2024-01-10T00:26:04;47.00;;;21.42;;
34767;SDS011;21755;43.608;1.236;2024-01-10T00:28:30;45.78;;;21.35;;
34767;SDS011;21755;43.608;1.236;2024-01-10T00:30:56;49.72;;;22.70;;
34767;SDS011;21755;43.608;1.236;2024-01-10T00:33:22;51.78;;;21.70;;
34767;SDS011;21755;43.608;1.236;2024-01-10T00:35:48;47.83;;;20.60;;
34767;SDS011;21755;43.608;1.236;2024-01-10T00:38:13;49.95;;;20.75;;
34767;SDS011;21755;43.608;1.236;2024-01-10T00:40:39;43.90;;;19.35;;
34767;SDS011;21755;43.608;1.236;2024-01-10T00:43:05;46.05;;;20.10;;
34767;SDS011;21755;43.608;1.236;2024-01-10T00:45:31;44.70;;;20.70;;
34767;SDS011;21755;43.608;1.236;2024-01-10T00:47:57;42.88;;;18.98;;
34767;SDS011;21755;43.608;1.236;2024-01-10T00:50:23;46.05;;;19.80;;
34767;SDS011;21755;43.608;1.236;2024-01-10T00:52:49;53.50;;;23.50;;
34767;SDS011;21755;43.608;1.236;2024-01-10T00:55:15;51.63;;;22.92;;
34767;SDS011;21755;43.608;1.236;2024-01-10T00:57:41;50.78;;;22.67;;
34767;SDS011;21755;43.608;1.236;2024-01-10T01:00:07;44.55;;;20.08;;
34767;SDS011;21755;43.608;1.236;2024-01-10T01:02:35;46.92;;;20.35;;
34767;SDS011;21755;43.608;1.236;2024-01-10T01:05:04;44.70;;;20.92;;
34767;SDS011;21755;43.608;1.236;2024-01-10T01:07:32;45.92;;;21.25;;
34767;SDS011;21755;43.608;1.236;2024-01-10T01:09:58;43.90;;;19.60;;
34767;SDS011;21755;43.608;1.236;2024-01-10T01:12:24;50.65;;;22.27;;
34767;SDS011;21755;43.608;1.236;2024-01-10T01:14:50;50.90;;;21.63;;
34767;SDS011;21755;43.608;1.236;2024-01-10T01:17:16;42.00;;;19.67;;
34767;SDS011;21755;43.608;1.236;2024-01-10T01:19:42;47.85;;;21.17;;
34767;SDS011;21755;43.608;1.236;2024-01-10T01:22:08;48.22;;;20.75;;
34767;SDS011;21755;43.608;1.236;2024-01-10T01:24:34;45.50;;;20.88;;
34767;SDS011;21755;43.608;1.236;2024-01-10T01:27:00;44.75;;;20.83;;
34767;SDS011;21755;43.608;1.236;2024-01-10T01:29:27;49.60;;;21.98;;
34767;SDS011;21755;43.608;1.236;2024-01-10T01:31:54;47.58;;;20.65;;
34767;SDS011;21755;43.608;1.236;2024-01-10T01:34:20;43.70;;;20.77;;
34767;SDS011;21755;43.608;1.236;2024-01-10T01:36:46;55.33;;;23.15;;
34767;SDS011;21755;43.608;1.236;2024-01-10T01:39:12;56.38;;;22.90;;
34767;SDS011;21755;43.608;1.236;2024-01-10T01:41:40;48.20;;;21.10;;
34767;SDS011;21755;43.608;1.236;2024-01-10T01:44:06;48.20;;;21.05;;
34767;SDS011;21755;43.608;1.236;2024-01-10T01:46:32;50.20;;;21.90;;
34767;SDS011;21755;43.608;1.236;2024-01-10T01:48:58;47.35;;;22.33;;
34767;SDS011;21755;43.608;1.236;2024-01-10T01:51:25;49.90;;;21.55;;
34767;SDS011;21755;43.608;1.236;2024-01-10T01:53:53;45.28;;;21.17;;
34767;SDS011;21755;43.608;1.236;2024-01-10T01:56:20;50.47;;;22.17;;
34767;SDS011;21755;43.608;1.236;2024-01-10T01:58:46;54.70;;;22.23;;
34767;SDS011;21755;43.608;1.236;2024-01-10T02:01:15;44.85;;;22.02;;
34767;SDS011;21755;43.608;1.236;2024-01-10T02:03:41;45.83;;;22.23;;
34767;SDS011;21755;43.608;1.236;2024-01-10T02:06:07;49.55;;;23.45;;
34767;SDS011;21755;43.608;1.236;2024-01-10T02:08:33;46.95;;;21.65;;
34767;SDS011;21755;43.608;1.236;2024-01-10T02:11:01;49.60;;;22.88;;
34767;SDS011;21755;43.608;1.236;2024-01-10T02:13:28;52.35;;;23.27;;
34767;SDS011;21755;43.608;1.236;2024-01-10T02:15:55;48.60;;;23.15;;
34767;SDS011;21755;43.608;1.236;2024-01-10T02:18:21;48.50;;;23.05;;
34767;SDS011;21755;43.608;1.236;2024-01-10T02:20:47;55.45;;;24.77;;
34767;SDS011;21755;43.608;1.236;2024-01-10T02:23:13;56.78;;;25.20;;
34767;SDS011;21755;43.608;1.236;2024-01-10T02:25:40;53.20;;;24.35;;
34767;SDS011;21755;43.608;1.236;2024-01-10T02:28:06;60.08;;;27.23;;
34767;SDS011;21755;43.608;1.236;2024-01-10T02:30:34;59.17;;;27.75;;
34767;SDS011;21755;43.608;1.236;2024-01-10T02:33:00;54.60;;;27.38;;
34767;SDS011;21755;43.608;1.236;2024-01-10T02:35:26;60.92;;;27.05;;
34767;SDS011;21755;43.608;1.236;2024-01-10T02:37:52;61.47;;;28.33;;
34767;SDS011;21755;43.608;1.236;2024-01-10T02:40:19;56.60;;;26.95;;
34767;SDS011;21755;43.608;1.236;2024-01-10T02:42:46;60.53;;;27.88;;
34767;SDS011;21755;43.608;1.236;2024-01-10T02:45:12;69.82;;;27.63;;
34767;SDS011;21755;43.608;1.236;2024-01-10T02:47:38;59.58;;;27.58;;
34767;SDS011;21755;43.608;1.236;2024-01-10T02:50:04;64.47;;;28.08;;
34767;SDS011;21755;43.608;1.236;2024-01-10T02:52:31;60.45;;;29.45;;
34767;SDS011;21755;43.608;1.236;2024-01-10T02:54:57;67.50;;;29.63;;
34767;SDS011;21755;43.608;1.236;2024-01-10T02:57:23;65.32;;;28.02;;
34767;SDS011;21755;43.608;1.236;2024-01-10T02:59:49;58.63;;;27.42;;
34767;SDS011;21755;43.608;1.236;2024-01-10T03:02:15;67.85;;;28.40;;
34767;SDS011;21755;43.608;1.236;2024-01-10T03:04:41;65.32;;;27.88;;
34767;SDS011;21755;43.608;1.236;2024-01-10T03:07:08;61.88;;;27.90;;
34767;SDS011;21755;43.608;1.236;2024-01-10T03:09:34;68.43;;;29.02;;
34767;SDS011;21755;43.608;1.236;2024-01-10T03:12:00;61.53;;;28.58;;
34767;SDS011;21755;43.608;1.236;2024-01-10T03:14:26;63.35;;;30.08;;
34767;SDS011;21755;43.608;1.236;2024-01-10T03:16:52;69.03;;;31.23;;
34767;SDS011;21755;43.608;1.236;2024-01-10T03:19:18;72.68;;;32.55;;
34767;SDS011;21755;43.608;1.236;2024-01-10T03:21:44;75.90;;;32.25;;
34767;SDS011;21755;43.608;1.236;2024-01-10T03:24:10;70.53;;;32.22;;
34767;SDS011;21755;43.608;1.236;2024-01-10T03:26:36;70.88;;;31.85;;
34767;SDS011;21755;43.608;1.236;2024-01-10T03:29:02;74.90;;;32.80;;
34767;SDS011;21755;43.608;1.236;2024-01-10T03:31:28;70.18;;;32.53;;
34767;SDS011;21755;43.608;1.236;2024-01-10T03:33:56;70.85;;;32.03;;
34767;SDS011;21755;43.608;1.236;2024-01-10T03:36:23;74.72;;;33.42;;
34767;SDS011;21755;43.608;1.236;2024-01-10T03:38:49;73.00;;;33.80;;
34767;SDS011;21755;43.608;1.236;2024-01-10T03:41:18;79.28;;;35.38;;
34767;SDS011;21755;43.608;1.236;2024-01-10T03:43:45;84.72;;;35.85;;
34767;SDS011;21755;43.608;1.236;2024-01-10T03:46:12;77.43;;;36.88;;
34767;SDS011;21755;43.608;1.236;2024-01-10T03:48:39;78.90;;;36.00;;
34767;SDS011;21755;43.608;1.236;2024-01-10T03:51:17;83.13;;;39.10;;
34767;SDS011;21755;43.608;1.236;2024-01-10T03:53:44;85.70;;;37.83;;
34767;SDS011;21755;43.608;1.236;2024-01-10T03:56:13;77.25;;;36.70;;
34767;SDS011;21755;43.608;1.236;2024-01-10T03:58:40;83.93;;;37.38;;
34767;SDS011;21755;43.608;1.236;2024-01-10T04:01:09;82.40;;;35.83;;
34767;SDS011;21755;43.608;1.236;2024-01-10T04:03:35;83.65;;;38.65;;
34767;SDS011;21755;43.608;1.236;2024-01-10T04:06:02;90.00;;;39.67;;
34767;SDS011;21755;43.608;1.236;2024-01-10T04:08:28;84.05;;;39.15;;
34767;SDS011;21755;43.608;1.236;2024-01-10T04:10:54;76.53;;;36.60;;
34767;SDS011;21755;43.608;1.236;2024-01-10T04:13:20;89.50;;;39.20;;
34767;SDS011;21755;43.608;1.236;2024-01-10T04:15:46;80.97;;;36.90;;
34767;SDS011;21755;43.608;1.236;2024-01-10T04:18:11;78.82;;;37.72;;
34767;SDS011;21755;43.608;1.236;2024-01-10T04:20:37;84.40;;;37.85;;
34767;SDS011;21755;43.608;1.236;2024-01-10T04:23:03;87.20;;;38.63;;
34767;SDS011;21755;43.608;1.236;2024-01-10T04:25:29;82.32;;;37.05;;
34767;SDS011;21755;43.608;1.236;2024-01-10T04:27:55;91.38;;;39.85;;
34767;SDS011;21755;43.608;1.236;2024-01-10T04:30:22;76.43;;;38.35;;
34767;SDS011;21755;43.608;1.236;2024-01-10T04:32:48;77.53;;;37.30;;
34767;SDS011;21755;43.608;1.236;2024-01-10T04:35:14;80.90;;;37.35;;
34767;SDS011;21755;43.608;1.236;2024-01-10T04:37:40;85.60;;;36.45;;
34767;SDS011;21755;43.608;1.236;2024-01-10T04:40:06;76.93;;;35.83;;
34767;SDS011;21755;43.608;1.236;2024-01-10T04:42:33;78.45;;;35.50;;
34767;SDS011;21755;43.608;1.236;2024-01-10T04:44:58;74.28;;;34.63;;
34767;SDS011;21755;43.608;1.236;2024-01-10T04:47:24;78.78;;;36.25;;
34767;SDS011;21755;43.608;1.236;2024-01-10T04:49:50;72.07;;;34.25;;
34767;SDS011;21755;43.608;1.236;2024-01-10T04:52:16;75.57;;;34.03;;
34767;SDS011;21755;43.608;1.236;2024-01-10T04:54:42;70.43;;;33.78;;
34767;SDS011;21755;43.608;1.236;2024-01-10T04:57:08;76.03;;;34.42;;
34767;SDS011;21755;43.608;1.236;2024-01-10T04:59:34;72.60;;;33.45;;
34767;SDS011;21755;43.608;1.236;2024-01-10T05:01:59;72.57;;;32.78;;
34767;SDS011;21755;43.608;1.236;2024-01-10T05:04:25;73.80;;;33.20;;
34767;SDS011;21755;43.608;1.236;2024-01-10T05:06:51;67.70;;;34.42;;
34767;SDS011;21755;43.608;1.236;2024-01-10T05:09:17;71.22;;;34.38;;
34767;SDS011;21755;43.608;1.236;2024-01-10T05:11:43;82.88;;;33.75;;
34767;SDS011;21755;43.608;1.236;2024-01-10T05:14:13;77.47;;;35.28;;
34767;SDS011;21755;43.608;1.236;2024-01-10T05:16:39;73.85;;;34.40;;
34767;SDS011;21755;43.608;1.236;2024-01-10T05:19:05;71.85;;;34.30;;
34767;SDS011;21755;43.608;1.236;2024-01-10T05:21:31;68.28;;;33.35;;
34767;SDS011;21755;43.608;1.236;2024-01-10T05:23:58;66.57;;;33.80;;
34767;SDS011;21755;43.608;1.236;2024-01-10T05:26:24;75.20;;;34.50;;
34767;SDS011;21755;43.608;1.236;2024-01-10T05:28:50;76.18;;;34.97;;
34767;SDS011;21755;43.608;1.236;2024-01-10T05:31:16;80.50;;;35.70;;
34767;SDS011;21755;43.608;1.236;2024-01-10T05:33:41;78.45;;;34.78;;
34767;SDS011;21755;43.608;1.236;2024-01-10T05:36:08;88.60;;;37.60;;
34767;SDS011;21755;43.608;1.236;2024-01-10T05:38:37;76.20;;;34.75;;
34767;SDS011;21755;43.608;1.236;2024-01-10T05:41:05;76.47;;;35.97;;
34767;SDS011;21755;43.608;1.236;2024-01-10T05:43:31;70.43;;;33.35;;
34767;SDS011;21755;43.608;1.236;2024-01-10T05:45:57;72.03;;;32.78;;
34767;SDS011;21755;43.608;1.236;2024-01-10T05:48:24;70.43;;;32.60;;
34767;SDS011;21755;43.608;1.236;2024-01-10T05:50:50;68.97;;;31.30;;
34767;SDS011;21755;43.608;1.236;2024-01-10T05:53:16;65.90;;;31.52;;
34767;SDS011;21755;43.608;1.236;2024-01-10T05:55:45;64.18;;;29.85;;
34767;SDS011;21755;43.608;1.236;2024-01-10T05:58:11;60.30;;;27.48;;
34767;SDS011;21755;43.608;1.236;2024-01-10T06:00:37;59.05;;;28.63;;
34767;SDS011;21755;43.608;1.236;2024-01-10T06:03:03;53.70;;;27.63;;
34767;SDS011;21755;43.608;1.236;2024-01-10T06:05:29;61.95;;;27.92;;
34767;SDS011;21755;43.608;1.236;2024-01-10T06:07:56;60.05;;;26.77;;
34767;SDS011;21755;43.608;1.236;2024-01-10T06:10:23;58.35;;;28.73;;
34767;SDS011;21755;43.608;1.236;2024-01-10T06:12:49;61.35;;;26.80;;
34767;SDS011;21755;43.608;1.236;2024-01-10T06:15:15;55.78;;;26.17;;
34767;SDS011;21755;43.608;1.236;2024-01-10T06:17:41;58.42;;;27.10;;
34767;SDS011;21755;43.608;1.236;2024-01-10T06:20:07;58.20;;;25.92;;
34767;SDS011;21755;43.608;1.236;2024-01-10T06:22:34;52.95;;;26.35;;
34767;SDS011;21755;43.608;1.236;2024-01-10T06:25:00;53.65;;;25.33;;
34767;SDS011;21755;43.608;1.236;2024-01-10T06:27:26;56.42;;;26.45;;
34767;SDS011;21755;43.608;1.236;2024-01-10T06:29:52;54.63;;;26.55;;
34767;SDS011;21755;43.608;1.236;2024-01-10T06:32:17;56.85;;;26.17;;
34767;SDS011;21755;43.608;1.236;2024-01-10T06:34:43;61.58;;;28.10;;
34767;SDS011;21755;43.608;1.236;2024-01-10T06:37:10;58.33;;;27.13;;
34767;SDS011;21755;43.608;1.236;2024-01-10T06:39:36;60.53;;;28.25;;
34767;SDS011;21755;43.608;1.236;2024-01-10T06:42:01;57.85;;;28.67;;
34767;SDS011;21755;43.608;1.236;2024-01-10T06:44:33;59.40;;;26.33;;
34767;SDS011;21755;43.608;1.236;2024-01-10T06:46:59;58.97;;;27.77;;
34767;SDS011;21755;43.608;1.236;2024-01-10T06:49:25;55.25;;;26.65;;
34767;SDS011;21755;43.608;1.236;2024-01-10T06:51:52;58.03;;;27.92;;
34767;SDS011;21755;43.608;1.236;2024-01-10T06:54:18;56.50;;;26.00;;
34767;SDS011;21755;43.608;1.236;2024-01-10T06:56:44;53.10;;;27.17;;
34767;SDS011;21755;43.608;1.236;2024-01-10T06:59:10;64.32;;;28.73;;
34767;SDS011;21755;43.608;1.236;2024-01-10T07:01:36;63.65;;;30.55;;
34767;SDS011;21755;43.608;1.236;2024-01-10T07:04:04;57.10;;;29.25;;
34767;SDS011;21755;43.608;1.236;2024-01-10T07:06:30;59.20;;;29.08;;
34767;SDS011;21755;43.608;1.236;2024-01-10T07:08:56;63.53;;;29.85;;
34767;SDS011;21755;43.608;1.236;2024-01-10T07:11:23;58.45;;;28.58;;
34767;SDS011;21755;43.608;1.236;2024-01-10T07:13:51;61.83;;;28.15;;
34767;SDS011;21755;43.608;1.236;2024-01-10T07:16:17;60.47;;;28.50;;
34767;SDS011;21755;43.608;1.236;2024-01-10T07:18:44;57.42;;;26.77;;
34767;SDS011;21755;43.608;1.236;2024-01-10T07:21:11;54.97;;;26.02;;
34767;SDS011;21755;43.608;1.236;2024-01-10T07:23:37;65.13;;;28.63;;
34767;SDS011;21755;43.608;1.236;2024-01-10T07:26:05;51.78;;;24.88;;
34767;SDS011;21755;43.608;1.236;2024-01-10T07:28:32;53.15;;;25.05;;
34767;SDS011;21755;43.608;1.236;2024-01-10T07:30:58;53.67;;;24.30;;
34767;SDS011;21755;43.608;1.236;2024-01-10T07:33:24;45.55;;;21.95;;
34767;SDS011;21755;43.608;1.236;2024-01-10T07:35:50;48.35;;;22.17;;
34767;SDS011;21755;43.608;1.236;2024-01-10T07:38:18;46.53;;;22.85;;
34767;SDS011;21755;43.608;1.236;2024-01-10T07:40:43;42.95;;;20.55;;
34767;SDS011;21755;43.608;1.236;2024-01-10T07:43:09;42.35;;;20.42;;
34767;SDS011;21755;43.608;1.236;2024-01-10T07:45:36;41.13;;;19.92;;
34767;SDS011;21755;43.608;1.236;2024-01-10T07:48:02;42.20;;;19.63;;
34767;SDS011;21755;43.608;1.236;2024-01-10T07:50:28;45.60;;;19.90;;
34767;SDS011;21755;43.608;1.236;2024-01-10T07:52:54;42.88;;;19.40;;
34767;SDS011;21755;43.608;1.236;2024-01-10T07:55:20;41.20;;;18.67;;
34767;SDS011;21755;43.608;1.236;2024-01-10T07:57:45;42.80;;;21.10;;
34767;SDS011;21755;43.608;1.236;2024-01-10T08:00:11;48.80;;;20.77;;
34767;SDS011;21755;43.608;1.236;2024-01-10T08:02:38;36.00;;;17.75;;
34767;SDS011;21755;43.608;1.236;2024-01-10T08:05:05;42.83;;;19.50;;
34767;SDS011;21755;43.608;1.236;2024-01-10T08:07:34;44.42;;;21.30;;
34767;SDS011;21755;43.608;1.236;2024-01-10T08:10:05;45.10;;;19.48;;
34767;SDS011;21755;43.608;1.236;2024-01-10T08:12:33;39.08;;;17.67;;
34767;SDS011;21755;43.608;1.236;2024-01-10T08:14:59;41.40;;;18.98;;
34767;SDS011;21755;43.608;1.236;2024-01-10T08:17:25;41.63;;;18.65;;
34767;SDS011;21755;43.608;1.236;2024-01-10T08:19:50;42.58;;;20.13;;
34767;SDS011;21755;43.608;1.236;2024-01-10T08:22:17;38.63;;;18.10;;
34767;SDS011;21755;43.608;1.236;2024-01-10T08:24:45;39.40;;;18.83;;
34767;SDS011;21755;43.608;1.236;2024-01-10T08:27:11;39.17;;;18.38;;
34767;SDS011;21755;43.608;1.236;2024-01-10T08:29:37;36.50;;;17.15;;
34767;SDS011;21755;43.608;1.236;2024-01-10T08:32:03;42.60;;;18.15;;
34767;SDS011;21755;43.608;1.236;2024-01-10T08:34:30;38.08;;;17.02;;
34767;SDS011;21755;43.608;1.236;2024-01-10T08:36:56;31.92;;;16.85;;
34767;SDS011;21755;43.608;1.236;2024-01-10T08:39:22;34.13;;;17.23;;
34767;SDS011;21755;43.608;1.236;2024-01-10T08:41:49;35.42;;;15.75;;
34767;SDS011;21755;43.608;1.236;2024-01-10T08:44:15;36.45;;;16.77;;
34767;SDS011;21755;43.608;1.236;2024-01-10T08:46:41;33.35;;;16.42;;
34767;SDS011;21755;43.608;1.236;2024-01-10T08:49:07;32.28;;;14.60;;
34767;SDS011;21755;43.608;1.236;2024-01-10T08:51:33;33.10;;;15.10;;
34767;SDS011;21755;43.608;1.236;2024-01-10T08:53:59;26.77;;;13.32;;
34767;SDS011;21755;43.608;1.236;2024-01-10T08:56:25;29.60;;;13.60;;
34767;SDS011;21755;43.608;1.236;2024-01-10T08:58:52;30.30;;;13.25;;
34767;SDS011;21755;43.608;1.236;2024-01-10T09:01:18;30.30;;;14.48;;
34767;SDS011;21755;43.608;1.236;2024-01-10T09:03:44;24.33;;;12.15;;
34767;SDS011;21755;43.608;1.236;2024-01-10T09:06:11;24.38;;;11.82;;
34767;SDS011;21755;43.608;1.236;2024-01-10T09:08:37;24.20;;;11.20;;
34767;SDS011;21755;43.608;1.236;2024-01-10T09:11:04;25.35;;;11.98;;
34767;SDS011;21755;43.608;1.236;2024-01-10T09:13:30;29.10;;;11.88;;
34767;SDS011;21755;43.608;1.236;2024-01-10T09:15:56;22.70;;;11.13;;
34767;SDS011;21755;43.608;1.236;2024-01-10T09:18:22;23.17;;;11.38;;
34767;SDS011;21755;43.608;1.236;2024-01-10T09:20:48;23.02;;;11.32;;
34767;SDS011;21755;43.608;1.236;2024-01-10T09:23:14;32.80;;;15.32;;
34767;SDS011;21755;43.608;1.236;2024-01-10T09:25:40;32.45;;;15.60;;
34767;SDS011;21755;43.608;1.236;2024-01-10T09:28:06;30.25;;;13.90;;
34767;SDS011;21755;43.608;1.236;2024-01-10T09:30:32;31.02;;;15.07;;
34767;SDS011;21755;43.608;1.236;2024-01-10T09:32:59;29.60;;;15.18;;
34767;SDS011;21755;43.608;1.236;2024-01-10T09:35:25;33.90;;;15.15;;
34767;SDS011;21755;43.608;1.236;2024-01-10T09:37:52;37.40;;;16.05;;
34767;SDS011;21755;43.608;1.236;2024-01-10T09:40:19;39.05;;;17.10;;
34767;SDS011;21755;43.608;1.236;2024-01-10T09:42:50;36.15;;;17.33;;
34767;SDS011;21755;43.608;1.236;2024-01-10T09:45:16;31.85;;;16.55;;
34767;SDS011;21755;43.608;1.236;2024-01-10T09:47:45;31.35;;;15.98;;
34767;SDS011;21755;43.608;1.236;2024-01-10T09:50:15;41.00;;;18.73;;
34767;SDS011;21755;43.608;1.236;2024-01-10T09:52:41;32.95;;;16.50;;
34767;SDS011;21755;43.608;1.236;2024-01-10T09:55:26;33.47;;;15.95;;
34767;SDS011;21755;43.608;1.236;2024-01-10T09:57:59;38.83;;;17.52;;
34767;SDS011;21755;43.608;1.236;2024-01-10T10:00:30;37.42;;;17.98;;
34767;SDS011;21755;43.608;1.236;2024-01-10T10:02:58;37.50;;;18.67;;
34767;SDS011;21755;43.608;1.236;2024-01-10T10:05:26;41.95;;;18.08;;
34767;SDS011;21755;43.608;1.236;2024-01-10T10:07:53;39.53;;;19.30;;
34767;SDS011;21755;43.608;1.236;2024-01-10T10:10:19;41.72;;;18.98;;
34767;SDS011;21755;43.608;1.236;2024-01-10T10:12:46;40.83;;;18.50;;
34767;SDS011;21755;43.608;1.236;2024-01-10T10:15:14;38.60;;;18.25;;
34767;SDS011;21755;43.608;1.236;2024-01-10T10:17:44;32.33;;;17.13;;
34767;SDS011;21755;43.608;1.236;2024-01-10T10:25:29;31.98;;;15.50;;
34767;SDS011;21755;43.608;1.236;2024-01-10T10:27:57;36.10;;;17.77;;
34767;SDS011;21755;43.608;1.236;2024-01-10T10:30:23;36.92;;;16.38;;
34767;SDS011;21755;43.608;1.236;2024-01-10T10:32:49;38.50;;;18.10;;
34767;SDS011;21755;43.608;1.236;2024-01-10T10:35:15;37.65;;;16.98;;
34767;SDS011;21755;43.608;1.236;2024-01-10T10:37:43;32.58;;;14.65;;
34767;SDS011;21755;43.608;1.236;2024-01-10T10:40:09;34.25;;;16.33;;
34767;SDS011;21755;43.608;1.236;2024-01-10T10:42:37;30.13;;;15.07;;
34767;SDS011;21755;43.608;1.236;2024-01-10T10:45:09;28.40;;;14.55;;
34767;SDS011;21755;43.608;1.236;2024-01-10T10:47:38;29.75;;;14.25;;
34767;SDS011;21755;43.608;1.236;2024-01-10T10:50:10;26.60;;;14.50;;
34767;SDS011;21755;43.608;1.236;2024-01-10T10:52:41;26.75;;;13.93;;
34767;SDS011;21755;43.608;1.236;2024-01-10T10:55:13;27.63;;;13.60;;
34767;SDS011;21755;43.608;1.236;2024-01-10T10:57:46;26.38;;;13.45;;
34767;SDS011;21755;43.608;1.236;2024-01-10T11:02:44;30.45;;;14.07;;
34767;SDS011;21755;43.608;1.236;2024-01-10T11:05:11;35.95;;;13.80;;
34767;SDS011;21755;43.608;1.236;2024-01-10T11:07:38;26.75;;;12.82;;
34767;SDS011;21755;43.608;1.236;2024-01-10T11:10:06;27.58;;;13.77;;
34767;SDS011;21755;43.608;1.236;2024-01-10T11:23:50;28.40;;;13.57;;
34767;SDS011;21755;43.608;1.236;2024-01-10T11:26:19;29.90;;;13.88;;
34767;SDS011;21755;43.608;1.236;2024-01-10T11:28:46;27.23;;;12.77;;
34767;SDS011;21755;43.608;1.236;2024-01-10T11:31:12;24.73;;;12.57;;
34767;SDS011;21755;43.608;1.236;2024-01-10T11:33:53;26.95;;;13.02;;
34767;SDS011;21755;43.608;1.236;2024-01-10T11:36:20;26.58;;;13.18;;
34767;SDS011;21755;43.608;1.236;2024-01-10T11:38:53;28.67;;;12.70;;
34767;SDS011;21755;43.608;1.236;2024-01-10T11:41:22;24.83;;;12.38;;
34767;SDS011;21755;43.608;1.236;2024-01-10T11:46:42;23.35;;;12.27;;
34767;SDS011;21755;43.608;1.236;2024-01-10T11:49:11;24.88;;;13.00;;
34767;SDS011;21755;43.608;1.236;2024-01-10T11:51:43;28.42;;;13.02;;
34767;SDS011;21755;43.608;1.236;2024-01-10T11:54:09;24.45;;;13.45;;
34767;SDS011;21755;43.608;1.236;2024-01-10T11:56:39;23.85;;;12.05;;
34767;SDS011;21755;43.608;1.236;2024-01-10T11:59:06;25.30;;;12.50;;
34767;SDS011;21755;43.608;1.236;2024-01-10T12:01:34;84.45;;;32.75;;
34767;SDS011;21755;43.608;1.236;2024-01-10T12:04:02;39.45;;;19.58;;
34767;SDS011;21755;43.608;1.236;2024-01-10T12:06:29;30.23;;;14.05;;
34767;SDS011;21755;43.608;1.236;2024-01-10T12:08:57;38.60;;;17.35;;
34767;SDS011;21755;43.608;1.236;2024-01-10T12:11:24;32.45;;;15.50;;
34767;SDS011;21755;43.608;1.236;2024-01-10T12:13:52;33.38;;;16.02;;
34767;SDS011;21755;43.608;1.236;2024-01-10T12:16:18;29.85;;;14.18;;
34767;SDS011;21755;43.608;1.236;2024-01-10T12:18:43;31.13;;;14.40;;
34767;SDS011;21755;43.608;1.236;2024-01-10T12:21:09;26.02;;;12.57;;
34767;SDS011;21755;43.608;1.236;2024-01-10T12:23:37;29.45;;;13.95;;
34767;SDS011;21755;43.608;1.236;2024-01-10T12:26:08;32.10;;;13.90;;
34767;SDS011;21755;43.608;1.236;2024-01-10T12:28:38;29.98;;;14.80;;
34767;SDS011;21755;43.608;1.236;2024-01-10T12:31:04;28.70;;;13.50;;
34767;SDS011;21755;43.608;1.236;2024-01-10T12:33:33;27.95;;;14.68;;
34767;SDS011;21755;43.608;1.236;2024-01-10T12:38:35;31.77;;;15.07;;
34767;SDS011;21755;43.608;1.236;2024-01-10T12:41:03;34.63;;;15.55;;
34767;SDS011;21755;43.608;1.236;2024-01-10T12:43:30;30.45;;;15.48;;
34767;SDS011;21755;43.608;1.236;2024-01-10T12:46:05;35.38;;;15.75;;
34767;SDS011;21755;43.608;1.236;2024-01-10T12:48:32;26.80;;;14.40;;
34767;SDS011;21755;43.608;1.236;2024-01-10T12:51:02;30.30;;;15.88;;
34767;SDS011;21755;43.608;1.236;2024-01-10T12:53:33;38.22;;;18.13;;
34767;SDS011;21755;43.608;1.236;2024-01-10T12:56:04;39.28;;;16.45;;
34767;SDS011;21755;43.608;1.236;2024-01-10T12:58:30;31.60;;;16.10;;
34767;SDS011;21755;43.608;1.236;2024-01-10T13:00:57;37.10;;;15.65;;
34767;SDS011;21755;43.608;1.236;2024-01-10T13:03:23;32.55;;;15.45;;
34767;SDS011;21755;43.608;1.236;2024-01-10T13:05:52;34.15;;;16.88;;
34767;SDS011;21755;43.608;1.236;2024-01-10T13:08:18;34.22;;;16.27;;
34767;SDS011;21755;43.608;1.236;2024-01-10T13:10:45;37.13;;;17.02;;
34767;SDS011;21755;43.608;1.236;2024-01-10T13:13:12;32.45;;;16.70;;
34767;SDS011;21755;43.608;1.236;2024-01-10T13:15:39;33.53;;;16.15;;
34767;SDS011;21755;43.608;1.236;2024-01-10T13:18:05;31.23;;;15.23;;
34767;SDS011;21755;43.608;1.236;2024-01-10T13:20:32;35.05;;;15.80;;
34767;SDS011;21755;43.608;1.236;2024-01-10T13:22:58;36.67;;;15.88;;
34767;SDS011;21755;43.608;1.236;2024-01-10T13:25:23;34.63;;;17.25;;
34767;SDS011;21755;43.608;1.236;2024-01-10T13:27:50;30.50;;;15.00;;
34767;SDS011;21755;43.608;1.236;2024-01-10T13:30:16;35.53;;;16.88;;
34767;SDS011;21755;43.608;1.236;2024-01-10T13:32:43;34.90;;;16.10;;
34767;SDS011;21755;43.608;1.236;2024-01-10T13:35:09;31.45;;;14.55;;
34767;SDS011;21755;43.608;1.236;2024-01-10T13:37:37;30.10;;;15.18;;
34767;SDS011;21755;43.608;1.236;2024-01-10T13:40:03;31.27;;;15.88;;
34767;SDS011;21755;43.608;1.236;2024-01-10T13:42:31;31.25;;;15.77;;
34767;SDS011;21755;43.608;1.236;2024-01-10T13:44:58;39.60;;;17.08;;
34767;SDS011;21755;43.608;1.236;2024-01-10T13:47:24;31.08;;;15.30;;
34767;SDS011;21755;43.608;1.236;2024-01-10T13:49:49;31.10;;;15.38;;
34767;SDS011;21755;43.608;1.236;2024-01-10T13:52:16;30.25;;;16.13;;
34767;SDS011;21755;43.608;1.236;2024-01-10T13:54:42;34.40;;;15.10;;
34767;SDS011;21755;43.608;1.236;2024-01-10T13:57:08;30.85;;;16.08;;
34767;SDS011;21755;43.608;1.236;2024-01-10T13:59:34;30.73;;;14.70;;
34767;SDS011;21755;43.608;1.236;2024-01-10T14:02:00;33.22;;;15.95;;
34767;SDS011;21755;43.608;1.236;2024-01-10T14:04:26;30.08;;;14.63;;
34767;SDS011;21755;43.608;1.236;2024-01-10T14:06:52;28.23;;;14.63;;
34767;SDS011;21755;43.608;1.236;2024-01-10T14:09:17;33.28;;;14.90;;
34767;SDS011;21755;43.608;1.236;2024-01-10T14:11:44;32.03;;;15.07;;
34767;SDS011;21755;43.608;1.236;2024-01-10T14:14:10;31.95;;;15.32;;
34767;SDS011;21755;43.608;1.236;2024-01-10T14:16:36;36.97;;;15.10;;
34767;SDS011;21755;43.608;1.236;2024-01-10T14:19:02;31.38;;;15.45;;
34767;SDS011;21755;43.608;1.236;2024-01-10T14:21:28;29.05;;;14.80;;
34767;SDS011;21755;43.608;1.236;2024-01-10T14:23:56;32.85;;;15.50;;
34767;SDS011;21755;43.608;1.236;2024-01-10T14:26:22;28.25;;;13.95;;
34767;SDS011;21755;43.608;1.236;2024-01-10T14:28:49;29.95;;;14.52;;
34767;SDS011;21755;43.608;1.236;2024-01-10T14:31:18;27.92;;;13.80;;
34767;SDS011;21755;43.608;1.236;2024-01-10T14:33:44;32.95;;;14.77;;
34767;SDS011;21755;43.608;1.236;2024-01-10T14:36:10;26.00;;;14.20;;
34767;SDS011;21755;43.608;1.236;2024-01-10T14:38:36;31.00;;;14.60;;
34767;SDS011;21755;43.608;1.236;2024-01-10T14:41:03;34.67;;;14.65;;
34767;SDS011;21755;43.608;1.236;2024-01-10T14:43:29;28.27;;;13.73;;